Time;durP1;ratioP1;P1;durP2;ratioP2;P2;SDS_P1;SDS_P2;PMS_P1;PMS_P2;Temp;Humidity;BMP_temperature;BMP_pressure;BME280_temperature;BME280_humidity;BME280_pressure;Samples;Min_cycle;Max_cycle;Signal;HPM_P1;HPM_P2
2023/10/03 00:01:38;;;;;;;10.88;7.30;;;;;;;17.81;100.00;98392.50;15296248;19;20033;-51
2023/10/03 00:07:10;;;;;;;9.00;6.93;;;;;;;17.81;100.00;98393.38;15293009;19;20023;-50
2023/10/03 00:12:38;;;;;;;10.85;7.05;;;;;;;17.86;100.00;98379.94;15291571;19;20029;-54
2023/10/03 00:18:04;;;;;;;8.93;6.95;;;;;;;17.87;100.00;98376.16;15291818;19;20022;-51
2023/10/03 00:23:30;;;;;;;8.98;7.47;;;;;;;17.86;100.00;98379.09;15296745;19;20019;-51
2023/10/03 00:29:01;;;;;;;9.88;7.32;;;;;;;17.83;100.00;98369.44;15292999;19;20014;-50
2023/10/03 00:34:27;;;;;;;10.70;7.10;;;;;;;17.84;100.00;98368.41;15295534;19;20014;-50
2023/10/03 00:39:52;;;;;;;9.45;7.57;;;;;;;17.81;100.00;98355.22;15294401;19;20018;-49
2023/10/03 00:45:22;;;;;;;9.10;7.57;;;;;;;17.88;100.00;98360.63;15287232;19;20018;-54
2023/10/03 00:50:49;;;;;;;10.57;7.78;;;;;;;17.93;100.00;98355.41;15294399;19;20019;-55
2023/10/03 00:56:15;;;;;;;9.52;7.38;;;;;;;17.92;100.00;98342.00;15293396;19;20027;-53
2023/10/03 01:01:43;;;;;;;10.63;7.60;;;;;;;17.92;100.00;98333.81;15292921;19;20094;-54
2023/10/03 01:07:08;;;;;;;11.57;7.90;;;;;;;17.91;100.00;98322.06;15291018;19;20351;-53
2023/10/03 01:12:35;;;;;;;10.30;7.60;;;;;;;17.93;100.00;98322.69;15294051;19;20463;-52
2023/10/03 01:18:04;;;;;;;11.45;7.80;;;;;;;17.93;100.00;98319.97;15028139;19;5001742;-51
2023/10/03 01:23:35;;;;;;;9.77;7.90;;;;;;;17.91;100.00;98307.63;15292620;19;20034;-52
2023/10/03 01:29:02;;;;;;;9.10;7.65;;;;;;;17.91;100.00;98299.44;15291583;19;20018;-51
2023/10/03 01:34:27;;;;;;;11.07;8.00;;;;;;;17.87;100.00;98291.69;15292889;19;20753;-52
2023/10/03 01:39:54;;;;;;;11.20;7.78;;;;;;;17.90;100.00;98286.84;15291708;19;20431;-52
2023/10/03 01:45:32;;;;;;;9.82;7.88;;;;;;;17.86;100.00;98276.38;15288492;19;20022;-53
2023/10/03 01:50:57;;;;;;;11.35;7.88;;;;;;;17.91;100.00;98258.56;15286896;19;20014;-53
2023/10/03 01:56:25;;;;;;;10.43;8.18;;;;;;;17.91;100.00;98250.38;15283454;19;20362;-54
2023/10/03 02:01:49;;;;;;;11.50;8.30;;;;;;;17.86;100.00;98243.66;15285086;19;20070;-51
2023/10/03 02:07:16;;;;;;;13.57;9.10;;;;;;;17.84;100.00;98228.59;15284668;19;20011;-53
2023/10/03 02:12:48;;;;;;;12.05;8.50;;;;;;;17.83;100.00;98225.00;15287577;19;20489;-53
2023/10/03 02:18:16;;;;;;;11.95;8.35;;;;;;;17.76;100.00;98207.84;15285345;19;20382;-53
2023/10/03 02:23:42;;;;;;;11.02;9.07;;;;;;;17.70;100.00;98203.25;15289831;19;20017;-51
2023/10/03 02:29:10;;;;;;;12.85;9.13;;;;;;;17.65;100.00;98198.44;15284529;19;20018;-50
2023/10/03 02:34:35;;;;;;;12.30;8.50;;;;;;;17.62;100.00;98170.78;15287751;19;20014;-55
2023/10/03 02:40:00;;;;;;;12.32;8.98;;;;;;;17.55;100.00;98155.31;15286342;19;20077;-51
2023/10/03 02:45:35;;;;;;;11.63;8.93;;;;;;;17.52;100.00;98150.28;15285425;19;20018;-53
2023/10/03 02:51:01;;;;;;;13.52;9.68;;;;;;;17.50;100.00;98144.22;15281884;19;20018;-54
2023/10/03 02:56:27;;;;;;;13.48;9.68;;;;;;;17.49;100.00;98145.25;15283043;19;20383;-54
2023/10/03 03:01:56;;;;;;;16.27;10.45;;;;;;;17.49;100.00;98131.63;15285783;19;20515;-54
2023/10/03 03:07:24;;;;;;;12.18;10.10;;;;;;;17.48;100.00;98127.25;15279484;19;20022;-57
2023/10/03 03:12:50;;;;;;;12.82;10.27;;;;;;;17.51;100.00;98121.38;15284696;19;20018;-55
2023/10/03 03:18:19;;;;;;;13.30;9.95;;;;;;;17.54;100.00;98115.50;15265909;19;20011;-58
2023/10/03 03:23:56;;;;;;;14.05;9.82;;;;;;;17.52;100.00;98123.03;15295497;19;20037;-57
2023/10/03 03:29:31;;;;;;;12.23;9.60;;;;;;;17.45;100.00;98121.38;15298268;19;20014;-55
2023/10/03 03:34:59;;;;;;;12.23;10.02;;;;;;;17.47;100.00;98125.56;15297838;19;20018;-58
2023/10/03 03:40:29;;;;;;;13.00;10.38;;;;;;;17.43;100.00;98123.47;15297264;19;20014;-56
2023/10/03 03:45:55;;;;;;;14.13;10.10;;;;;;;17.40;100.00;98116.59;15296727;19;20011;-58
2023/10/03 03:51:22;;;;;;;13.70;10.07;;;;;;;17.39;100.00;98112.19;15299742;19;20053;-55
2023/10/03 03:56:48;;;;;;;13.80;10.65;;;;;;;17.37;100.00;98101.53;15284313;19;20102;-56
2023/10/03 04:02:13;;;;;;;14.73;10.77;;;;;;;17.40;100.00;98094.78;15292011;19;20015;-59
2023/10/03 04:07:41;;;;;;;12.52;10.50;;;;;;;17.39;100.00;98091.25;15285519;19;20014;-57
2023/10/03 04:13:10;;;;;;;13.43;10.52;;;;;;;17.40;100.00;98097.53;15288800;19;20014;-58
2023/10/03 04:18:36;;;;;;;13.10;10.23;;;;;;;17.41;100.00;98096.47;15282152;19;20084;-59
2023/10/03 04:24:05;;;;;;;14.68;10.80;;;;;;;17.33;100.00;98091.28;15289748;19;20010;-59
2023/10/03 04:29:33;;;;;;;16.05;10.30;;;;;;;17.32;100.00;98095.03;15281892;19;20009;-60
2023/10/03 04:34:58;;;;;;;16.48;11.25;;;;;;;17.31;100.00;98077.84;15287305;19;20014;-59
2023/10/03 04:40:28;;;;;;;15.02;10.60;;;;;;;17.29;100.00;98073.69;15286422;19;20031;-57
2023/10/03 04:45:54;;;;;;;14.88;10.25;;;;;;;17.25;100.00;98063.19;15283011;19;20428;-59
2023/10/03 04:51:20;;;;;;;15.20;10.90;;;;;;;17.22;100.00;98058.22;15286568;19;20019;-58
2023/10/03 04:56:48;;;;;;;13.27;10.50;;;;;;;17.16;100.00;98058.22;15284388;19;20010;-58
2023/10/03 05:02:13;;;;;;;15.50;10.82;;;;;;;17.06;100.00;98054.03;15282390;19;20017;-60
2023/10/03 05:07:37;;;;;;;13.68;10.50;;;;;;;17.02;100.00;98051.94;15277750;19;20018;-59
2023/10/03 05:13:05;;;;;;;15.30;10.65;;;;;;;17.02;100.00;98046.50;15287360;19;20024;-58
2023/10/03 05:18:30;;;;;;;15.77;10.50;;;;;;;17.03;100.00;98046.31;15281346;19;20021;-59
2023/10/03 05:23:55;;;;;;;14.43;10.13;;;;;;;17.05;100.00;98032.47;15286083;19;20032;-59
2023/10/03 05:29:24;;;;;;;13.23;10.32;;;;;;;17.07;100.00;98039.38;15283324;19;20025;-59
2023/10/03 05:34:52;;;;;;;14.68;10.45;;;;;;;17.14;100.00;98039.38;15279497;19;20028;-57
2023/10/03 05:40:20;;;;;;;12.07;9.73;;;;;;;17.21;100.00;98023.88;15281148;19;20023;-60
2023/10/03 05:45:54;;;;;;;12.55;10.07;;;;;;;17.32;100.00;98035.13;15279411;19;20070;-59
2023/10/03 05:51:20;;;;;;;13.02;10.18;;;;;;;17.38;100.00;98034.25;15282157;19;20020;-58
2023/10/03 05:56:45;;;;;;;13.13;10.05;;;;;;;17.40;100.00;98029.44;15279852;19;20081;-58
2023/10/03 06:02:12;;;;;;;13.38;10.82;;;;;;;17.46;100.00;98031.31;15280909;19;20024;-59
2023/10/03 06:07:41;;;;;;;12.60;10.10;;;;;;;17.49;100.00;98019.16;15273110;19;20025;-58
2023/10/03 06:13:09;;;;;;;13.85;10.30;;;;;;;17.55;100.00;98021.00;15282713;19;20015;-60
2023/10/03 06:18:37;;;;;;;13.90;10.00;;;;;;;17.62;100.00;98018.25;15279061;19;20077;-59
2023/10/03 06:24:03;;;;;;;13.55;10.50;;;;;;;17.71;100.00;98023.25;15283437;19;20018;-58
2023/10/03 06:29:27;;;;;;;12.65;9.63;;;;;;;17.87;100.00;98016.44;15279387;19;20046;-59
2023/10/03 06:34:55;;;;;;;13.23;9.63;;;;;;;17.99;100.00;98008.41;15280495;19;20317;-60
2023/10/03 06:40:21;;;;;;;12.20;9.55;;;;;;;18.07;100.00;98011.97;15274481;19;20427;-57
2023/10/03 06:45:53;;;;;;;12.00;9.27;;;;;;;18.20;100.00;98011.00;15277477;19;20406;-56
2023/10/03 06:51:20;;;;;;;12.20;9.52;;;;;;;18.33;100.00;98025.41;15276785;19;20022;-59
2023/10/03 06:56:45;;;;;;;12.98;9.00;;;;;;;18.46;100.00;98012.72;15272285;19;20038;-59
2023/10/03 07:02:10;;;;;;;12.13;9.43;;;;;;;18.59;100.00;98011.75;15277498;19;20014;-57
2023/10/03 07:07:37;;;;;;;12.48;9.32;;;;;;;18.71;100.00;98015.44;15274780;19;20027;-59
2023/10/03 07:13:02;;;;;;;12.40;8.45;;;;;;;18.82;100.00;98011.13;15273795;19;20017;-58
2023/10/03 07:18:27;;;;;;;11.35;8.77;;;;;;;18.93;100.00;97996.75;15272560;19;20010;-59
2023/10/03 07:23:56;;;;;;;11.70;8.73;;;;;;;19.09;100.00;97991.75;15276585;19;20023;-60
2023/10/03 07:29:25;;;;;;;9.93;8.18;;;;;;;19.22;100.00;97993.53;15274094;19;20019;-59
2023/10/03 07:34:57;;;;;;;11.05;8.45;;;;;;;19.36;100.00;97995.00;15272382;19;20018;-61
2023/10/03 07:40:27;;;;;;;10.68;8.18;;;;;;;19.57;100.00;98003.81;15276201;19;20021;-55
2023/10/03 07:46:00;;;;;;;13.45;8.27;;;;;;;19.75;100.00;97999.38;15264632;19;20523;-58
2023/10/03 07:51:26;;;;;;;11.82;8.50;;;;;;;19.86;100.00;97993.13;15276843;19;20029;-53
2023/10/03 07:56:54;;;;;;;10.70;7.90;;;;;;;19.99;100.00;97997.59;15278278;19;20085;-55
2023/10/03 08:02:26;;;;;;;13.07;8.73;;;;;;;20.12;100.00;97993.81;15283905;19;20352;-52
2023/10/03 08:08:11;;;;;;;11.15;8.40;;;;;;;20.24;100.00;97983.75;15259201;19;20025;-55
2023/10/03 08:13:41;;;;;;;10.82;8.25;;;;;;;20.36;100.00;97996.59;15283249;19;20006;-54
2023/10/03 08:19:08;;;;;;;10.93;8.40;;;;;;;20.46;100.00;98000.41;15293254;19;20703;-57
2023/10/03 08:24:33;;;;;;;9.77;7.72;;;;;;;20.56;100.00;97997.09;15298052;19;20018;-56
2023/10/03 08:30:02;;;;;;;11.32;8.05;;;;;;;20.65;100.00;97997.59;15298037;19;20092;-55
2023/10/03 08:35:37;;;;;;;8.90;7.10;;;;;;;20.77;100.00;97997.59;15296405;19;20022;-52
2023/10/03 08:41:05;;;;;;;8.95;7.25;;;;;;;20.92;100.00;98006.19;15295369;19;20029;-58
2023/10/03 08:46:36;;;;;;;10.80;7.68;;;;;;;21.00;100.00;97995.94;15286852;19;20082;-57
2023/10/03 08:52:03;;;;;;;10.10;7.20;;;;;;;21.08;100.00;97987.38;15296027;19;20054;-57
2023/10/03 08:57:31;;;;;;;9.35;7.18;;;;;;;21.14;100.00;97972.69;15291855;19;20018;-55
2023/10/03 09:03:09;;;;;;;10.02;6.57;;;;;;;21.22;100.00;97961.38;15295589;19;20014;-56
2023/10/03 09:08:34;;;;;;;9.15;6.55;;;;;;;21.37;100.00;97957.28;15291208;19;20015;-54
2023/10/03 09:13:59;;;;;;;8.20;6.65;;;;;;;21.53;100.00;97972.09;15292527;19;20018;-52
2023/10/03 09:19:44;;;;;;;10.00;6.60;;;;;;;21.67;100.00;97979.00;15288411;19;20081;-52
2023/10/03 09:25:10;;;;;;;9.05;6.25;;;;;;;21.78;100.00;97970.97;15291399;19;20021;-56
2023/10/03 09:30:40;;;;;;;6.75;5.70;;;;;;;21.88;100.00;97984.88;15292028;19;20011;-57
2023/10/03 09:36:09;;;;;;;9.93;6.20;;;;;;;22.01;100.00;97975.53;15291440;19;20014;-55
2023/10/03 09:41:43;;;;;;;6.57;5.60;;;;;;;22.16;100.00;97992.25;15291276;19;20017;-55
2023/10/03 09:47:08;;;;;;;8.07;5.78;;;;;;;22.44;100.00;97990.53;15290070;19;20010;-57
2023/10/03 09:52:35;;;;;;;8.57;5.93;;;;;;;22.75;100.00;97987.44;15286173;19;20467;-55
2023/10/03 09:58:04;;;;;;;6.80;5.28;;;;;;;22.99;100.00;97963.34;15286566;19;20016;-55
2023/10/03 10:03:33;;;;;;;9.05;4.80;;;;;;;23.34;100.00;97970.44;15292117;19;20010;-54
2023/10/03 10:09:13;;;;;;;7.47;4.38;;;;;;;23.61;100.00;97971.59;15287999;19;20019;-53
2023/10/03 10:14:37;;;;;;;6.20;4.47;;;;;;;23.68;100.00;97973.06;15288870;19;20984;-54
2023/10/03 10:20:12;;;;;;;5.68;3.88;;;;;;;23.82;100.00;97967.13;15290109;19;20332;-51
2023/10/03 10:25:41;;;;;;;5.10;4.10;;;;;;;24.02;100.00;97960.22;15282713;19;20021;-53
2023/10/03 10:31:25;;;;;;;7.15;3.88;;;;;;;24.36;100.00;97971.78;15288193;19;20077;-56
2023/10/03 10:37:09;;;;;;;8.10;3.65;;;;;;;24.35;100.00;97972.88;15287789;19;20078;-54
2023/10/03 10:43:00;;;;;;;4.55;3.60;;;;;;;24.31;100.00;97958.81;15287580;19;20074;-55
2023/10/03 10:48:24;;;;;;;;;;;;;;;24.16;100.00;97966.94;15285426;19;20082;-54
2023/10/03 10:53:51;;;;;;;6.85;3.45;;;;;;;24.08;100.00;97964.66;15286451;19;20144;-53
2023/10/03 10:59:18;;;;;;;5.18;3.30;;;;;;;23.95;100.00;97949.38;15282197;19;20017;-54
2023/10/03 11:04:43;;;;;;;5.20;3.42;;;;;;;23.79;100.00;97962.16;15286742;19;20022;-56
2023/10/03 11:10:15;;;;;;;7.50;3.60;;;;;;;23.65;100.00;97953.47;15284830;19;20018;-54
2023/10/03 11:15:56;;;;;;;6.32;3.38;;;;;;;23.60;100.00;97964.41;15285745;19;20086;-56
2023/10/03 11:21:22;;;;;;;7.57;3.63;;;;;;;23.58;100.00;97947.34;15287906;19;20010;-57
2023/10/03 11:26:51;;;;;;;5.47;3.70;;;;;;;23.55;100.00;97937.69;15284507;19;20458;-52
2023/10/03 11:32:32;;;;;;;5.45;3.60;;;;;;;23.52;100.00;97960.19;15287013;19;20073;-53
2023/10/03 11:37:57;;;;;;;5.53;3.42;;;;;;;23.43;100.00;97986.50;15291054;19;20481;-53
2023/10/03 11:43:22;;;;;;;5.65;3.70;;;;;;;23.37;100.00;98002.09;15298104;19;20021;-57
2023/10/03 11:48:57;;;;;;;11.15;3.65;;;;;;;23.36;100.00;97987.50;15296235;19;20014;-55
2023/10/03 11:54:23;;;;;;;5.93;4.03;;;;;;;23.38;100.00;97995.50;15300494;19;20018;-54
2023/10/03 11:59:48;;;;;;;6.35;3.58;;;;;;;23.38;100.00;98012.81;15294104;19;20452;-53
2023/10/03 12:05:21;;;;;;;5.47;3.95;;;;;;;23.50;100.00;97998.13;15297644;19;20439;-53
2023/10/03 12:10:48;;;;;;;5.18;3.60;;;;;;;23.47;100.00;98004.13;15295014;19;20006;-55
2023/10/03 12:16:15;;;;;;;6.70;3.00;;;;;;;23.52;100.00;98012.44;15297708;19;20018;-54
2023/10/03 12:21:44;;;;;;;8.27;3.20;;;;;;;23.53;100.00;98003.09;15300435;19;20035;-55
2023/10/03 12:27:09;;;;;;;6.93;3.08;;;;;;;23.61;100.00;98005.41;15294760;19;20002;-53
2023/10/03 12:32:35;;;;;;;5.97;2.90;;;;;;;23.80;100.00;98007.81;15294095;19;20081;-56
2023/10/03 12:38:03;;;;;;;5.47;2.70;;;;;;;23.80;100.00;98003.13;15291448;19;20027;-55
2023/10/03 12:43:31;;;;;;;5.78;2.63;;;;;;;23.80;100.00;98014.16;15294338;19;20089;-53
2023/10/03 12:48:56;;;;;;;5.15;2.28;;;;;;;23.50;100.00;98022.84;15290862;19;20019;-54
2023/10/03 12:54:24;;;;;;;3.05;2.13;;;;;;;23.26;100.00;98025.84;15296597;19;20459;-54
2023/10/03 12:59:52;;;;;;;4.18;2.20;;;;;;;23.20;100.00;98015.88;15295690;19;20014;-56
2023/10/03 13:05:17;;;;;;;3.53;2.28;;;;;;;23.32;100.00;98040.50;15290425;19;20098;-53
2023/10/03 13:10:47;;;;;;;4.03;2.28;;;;;;;23.31;100.00;98025.06;15290746;19;20014;-53
2023/10/03 13:16:13;;;;;;;4.57;2.20;;;;;;;23.30;100.00;98029.75;15292828;19;20011;-54
2023/10/03 13:21:47;;;;;;;4.05;2.15;;;;;;;23.35;100.00;98027.06;15295273;19;20018;-56
2023/10/03 13:27:14;;;;;;;4.55;2.38;;;;;;;23.60;100.00;98008.41;15291944;19;20018;-55
2023/10/03 13:32:39;;;;;;;4.32;2.10;;;;;;;23.34;100.00;97999.84;15295659;19;20081;-55
2023/10/03 13:38:06;;;;;;;3.30;2.03;;;;;;;23.27;100.00;98000.03;15287396;19;20010;-58
2023/10/03 13:43:33;;;;;;;4.40;2.33;;;;;;;23.13;100.00;98009.69;15292556;19;20066;-53
2023/10/03 13:48:59;;;;;;;2.60;1.90;;;;;;;23.00;100.00;98000.72;15294413;19;20012;-53
2023/10/03 13:54:24;;;;;;;4.07;1.95;;;;;;;22.97;100.00;98003.16;15292867;19;20014;-56
2023/10/03 13:59:53;;;;;;;3.53;2.08;;;;;;;22.95;100.00;98008.91;15291905;19;20049;-55
2023/10/03 14:05:19;;;;;;;5.90;1.90;;;;;;;22.85;100.00;98004.09;15288928;19;20086;-57
2023/10/03 14:10:45;;;;;;;3.83;1.98;;;;;;;22.68;100.00;98004.09;15283208;19;20021;-56
2023/10/03 14:16:13;;;;;;;4.80;2.00;;;;;;;22.57;100.00;98005.03;15287283;19;20093;-55
2023/10/03 14:21:38;;;;;;;7.50;1.90;;;;;;;22.43;100.00;98004.53;15290839;19;20030;-54
2023/10/03 14:27:03;;;;;;;3.90;2.00;;;;;;;22.36;100.00;97993.69;15287086;19;20021;-53
2023/10/03 14:32:31;;;;;;;3.97;1.80;;;;;;;22.32;100.00;98003.47;15288453;19;20415;-55
2023/10/03 14:37:56;;;;;;;2.90;1.80;;;;;;;22.26;100.00;98005.31;15285449;19;20052;-57
2023/10/03 14:43:21;;;;;;;2.72;1.80;;;;;;;22.19;100.00;97987.34;15283744;19;20023;-54
2023/10/03 14:48:48;;;;;;;3.92;2.10;;;;;;;22.17;100.00;97988.41;15282152;19;20077;-53
2023/10/03 14:54:14;;;;;;;2.20;1.70;;;;;;;22.13;100.00;97969.94;15288637;19;20027;-54
2023/10/03 14:59:39;;;;;;;2.58;1.63;;;;;;;22.06;100.00;97974.78;15286448;19;20021;-54
2023/10/03 15:05:10;;;;;;;3.80;1.98;;;;;;;21.93;100.00;97981.41;15287197;19;20373;-57
2023/10/03 15:10:34;;;;;;;3.70;1.80;;;;;;;21.60;100.00;98002.16;15287567;19;20009;-54
2023/10/03 15:15:59;;;;;;;4.72;1.42;;;;;;;18.42;100.00;98143.22;15295820;19;20332;-53
2023/10/03 15:21:26;;;;;;;8.05;1.70;;;;;;;17.83;100.00;98180.59;15303213;19;20466;-58
2023/10/03 15:26:51;;;;;;;4.50;1.30;;;;;;;17.95;100.00;98170.69;15298559;19;20077;-51
2023/10/03 15:32:16;;;;;;;3.33;1.13;;;;;;;17.30;100.00;98189.69;15302716;19;20041;-53
2023/10/03 15:37:43;;;;;;;1.45;1.00;;;;;;;17.14;100.00;98215.47;15296770;19;20073;-54
2023/10/03 15:43:18;;;;;;;3.33;1.00;;;;;;;16.99;100.00;98249.16;15299552;19;20090;-57
2023/10/03 15:48:44;;;;;;;2.53;1.20;;;;;;;16.94;100.00;98277.00;15290316;19;20025;-55
2023/10/03 15:54:11;;;;;;;2.60;1.27;;;;;;;16.91;100.00;98290.97;15298244;19;20021;-55
2023/10/03 15:59:37;;;;;;;3.08;1.50;;;;;;;16.84;100.00;98303.72;15301232;19;20018;-57
2023/10/03 16:05:04;;;;;;;2.97;1.13;;;;;;;16.76;100.00;98344.69;15299912;19;20010;-54
2023/10/03 16:10:34;;;;;;;2.78;1.50;;;;;;;16.77;100.00;98385.31;15295642;19;20483;-57
2023/10/03 16:15:58;;;;;;;3.47;1.40;;;;;;;16.69;100.00;98425.44;15296292;19;20045;-56
2023/10/03 16:21:23;;;;;;;1.50;1.20;;;;;;;16.64;100.00;98399.69;15291204;19;20010;-54
2023/10/03 16:26:50;;;;;;;3.25;1.33;;;;;;;16.69;100.00;98357.44;15268951;19;20025;-57
2023/10/03 16:32:16;;;;;;;2.75;1.23;;;;;;;16.64;100.00;98361.59;15298058;19;20613;-53
2023/10/03 16:37:42;;;;;;;1.73;1.13;;;;;;;16.49;100.00;98446.03;15293958;19;20018;-54
2023/10/03 16:43:17;;;;;;;1.42;1.00;;;;;;;16.33;100.00;98468.94;15294326;19;20102;-55
2023/10/03 16:48:42;;;;;;;2.38;1.00;;;;;;;16.27;100.00;98486.06;15291758;19;20043;-57
2023/10/03 16:54:06;;;;;;;1.25;1.10;;;;;;;16.25;100.00;98507.16;15289942;19;20021;-53
2023/10/03 16:59:35;;;;;;;2.40;1.40;;;;;;;16.18;100.00;98536.13;15295999;19;20101;-56
2023/10/03 17:05:00;;;;;;;3.67;1.50;;;;;;;16.14;100.00;98554.72;15293215;19;20029;-55
2023/10/03 17:10:26;;;;;;;2.35;1.30;;;;;;;16.10;100.00;98577.91;15293407;19;20070;-54
2023/10/03 17:15:53;;;;;;;2.47;1.50;;;;;;;16.08;100.00;98563.66;15293768;19;20452;-57
2023/10/03 17:21:20;;;;;;;1.63;1.02;;;;;;;15.99;100.00;98570.25;15296170;19;20094;-55
2023/10/03 17:26:45;;;;;;;1.55;1.10;;;;;;;15.96;100.00;98538.84;15286414;19;20025;-59
2023/10/03 17:32:08;;;;;;;1.42;1.02;;;;;;;15.91;100.00;98541.31;15289509;19;20022;-54
2023/10/03 17:37:33;;;;;;;1.10;1.00;;;;;;;15.85;100.00;98585.56;15291226;19;20018;-55
2023/10/03 17:42:58;;;;;;;0.70;0.70;;;;;;;15.80;100.00;98560.81;15288830;19;20760;-53
2023/10/03 17:48:26;;;;;;;2.45;0.85;;;;;;;15.80;100.00;98528.22;15287550;19;20025;-56
2023/10/03 17:53:51;;;;;;;0.70;0.65;;;;;;;15.82;100.00;98505.25;15288374;19;20741;-56
2023/10/03 17:59:18;;;;;;;0.80;0.80;;;;;;;15.81;100.00;98527.19;15282927;19;20039;-56
2023/10/03 18:04:46;;;;;;;1.50;0.80;;;;;;;15.76;100.00;98526.91;15289208;19;20048;-54
2023/10/03 18:10:13;;;;;;;1.85;0.73;;;;;;;15.68;100.00;98574.03;15279350;19;20014;-56
2023/10/03 18:15:37;;;;;;;1.10;0.75;;;;;;;15.69;100.00;98576.59;15283346;19;20022;-52
2023/10/03 18:21:06;;;;;;;0.75;0.70;;;;;;;15.60;100.00;98572.28;15289362;19;20346;-54
2023/10/03 18:26:32;;;;;;;1.20;0.65;;;;;;;15.57;100.00;98621.56;15285556;19;20023;-57
2023/10/03 18:31:57;;;;;;;0.75;0.60;;;;;;;15.44;100.00;98614.06;15285759;19;20014;-57
2023/10/03 18:37:24;;;;;;;1.45;0.70;;;;;;;15.20;100.00;98688.47;15286189;19;20006;-58
2023/10/03 18:42:49;;;;;;;0.40;0.32;;;;;;;14.53;100.00;98685.44;15286038;19;20018;-56
2023/10/03 18:48:15;;;;;;;1.08;0.40;;;;;;;14.31;100.00;98714.19;15282058;19;20015;-58
2023/10/03 18:53:44;;;;;;;0.40;0.40;;;;;;;14.12;100.00;98727.16;15288485;19;20082;-60
2023/10/03 18:59:09;;;;;;;1.08;0.50;;;;;;;14.02;100.00;98750.91;15282243;19;20378;-59
2023/10/03 19:04:35;;;;;;;0.95;0.40;;;;;;;13.87;100.00;98777.91;15284534;19;20022;-60
2023/10/03 19:10:02;;;;;;;1.27;0.55;;;;;;;13.75;100.00;98815.31;15284228;19;20014;-59
2023/10/03 19:15:27;;;;;;;1.08;0.60;;;;;;;13.64;100.00;98819.22;15278203;19;20427;-55
2023/10/03 19:20:51;;;;;;;1.20;0.47;;;;;;;13.62;100.00;98829.41;15285163;19;20016;-59
2023/10/03 19:26:19;;;;;;;0.90;0.57;;;;;;;13.43;100.00;98852.25;15281670;19;20515;-57
2023/10/03 19:31:43;;;;;;;0.50;0.47;;;;;;;13.37;100.00;98869.09;15277180;19;20022;-58
2023/10/03 19:37:08;;;;;;;0.60;0.60;;;;;;;13.20;100.00;98873.66;15276485;19;20497;-53
2023/10/03 19:42:35;;;;;;;0.75;0.60;;;;;;;13.12;100.00;98893.41;15284030;19;20010;-58
2023/10/03 19:48:00;;;;;;;2.08;0.65;;;;;;;12.96;100.00;98907.75;15278865;19;20017;-58
2023/10/03 19:53:24;;;;;;;0.95;0.65;;;;;;;12.90;100.00;98911.13;15282215;19;20078;-54
2023/10/03 19:58:54;;;;;;;2.63;0.90;;;;;;;12.78;100.00;98926.81;15288402;19;20018;-56
2023/10/03 20:04:18;;;;;;;0.70;0.70;;;;;;;12.72;100.00;98946.38;15290734;19;20418;-57
2023/10/03 20:09:44;;;;;;;1.88;0.73;;;;;;;12.61;100.00;98948.38;15294874;19;20028;-54
2023/10/03 20:15:11;;;;;;;2.83;0.95;;;;;;;12.51;100.00;98974.69;15296432;19;20021;-55
2023/10/03 20:20:36;;;;;;;2.85;0.90;;;;;;;12.48;100.00;98980.41;15296949;19;20678;-58
2023/10/03 20:26:01;;;;;;;2.78;1.10;;;;;;;12.55;100.00;98983.31;15295923;19;20526;-56
2023/10/03 20:31:29;;;;;;;2.40;0.80;;;;;;;12.55;100.00;98989.53;15293640;19;20018;-61
2023/10/03 20:36:54;;;;;;;2.78;1.17;;;;;;;12.49;100.00;98993.72;15289099;19;20493;-55
2023/10/03 20:42:19;;;;;;;2.30;1.10;;;;;;;12.45;100.00;99008.59;15294920;19;20366;-60
2023/10/03 20:47:47;;;;;;;3.38;1.10;;;;;;;12.38;100.00;99025.59;15290731;19;20035;-56
2023/10/03 20:53:13;;;;;;;3.72;1.13;;;;;;;12.32;100.00;99027.06;15291817;19;20085;-53
2023/10/03 20:58:37;;;;;;;2.20;0.90;;;;;;;12.31;100.00;99031.59;15290465;19;20010;-55
2023/10/03 21:04:05;;;;;;;2.00;1.10;;;;;;;12.19;100.00;99054.47;15294980;19;20021;-54
2023/10/03 21:09:30;;;;;;;2.85;1.17;;;;;;;12.26;100.00;99071.78;15287729;19;20024;-54
2023/10/03 21:14:55;;;;;;;1.83;0.90;;;;;;;12.26;100.00;99095.22;15290393;19;20018;-55
2023/10/03 21:20:22;;;;;;;2.15;0.90;;;;;;;12.37;100.00;99121.16;15292838;19;20011;-57
2023/10/03 21:25:53;;;;;;;1.63;0.90;;;;;;;12.54;100.00;99139.22;15291294;19;20078;-56
2023/10/03 21:31:18;;;;;;;2.42;1.00;;;;;;;12.57;100.00;99155.13;15288793;19;20042;-55
2023/10/03 21:36:47;;;;;;;1.30;0.70;;;;;;;12.62;100.00;99174.44;15290506;19;20609;-52
2023/10/03 21:42:12;;;;;;;2.03;0.85;;;;;;;12.60;100.00;99189.97;15287103;19;20031;-57
2023/10/03 21:47:44;;;;;;;1.55;0.80;;;;;;;12.54;100.00;99192.44;15288895;19;20085;-57
2023/10/03 21:53:13;;;;;;;1.33;0.77;;;;;;;12.54;100.00;99204.06;15289019;19;20037;-55
2023/10/03 21:58:37;;;;;;;1.35;0.73;;;;;;;12.59;100.00;99195.50;15286555;19;20769;-57
2023/10/03 22:04:02;;;;;;;2.60;1.10;;;;;;;12.61;100.00;99198.91;15291398;19;20481;-59
2023/10/03 22:09:30;;;;;;;1.13;0.80;;;;;;;12.57;100.00;99195.66;15288391;19;20012;-55
2023/10/03 22:14:55;;;;;;;2.97;0.90;;;;;;;12.57;100.00;99195.66;15282117;19;20440;-55
2023/10/03 22:20:21;;;;;;;2.45;1.00;;;;;;;12.51;100.00;99209.81;15287991;19;20094;-59
2023/10/03 22:25:49;;;;;;;2.25;1.00;;;;;;;12.48;100.00;99202.00;15288433;19;20018;-56
2023/10/03 22:31:13;;;;;;;1.85;0.90;;;;;;;12.48;100.00;99207.41;15288328;19;20014;-52
2023/10/03 22:36:38;;;;;;;4.55;1.20;;;;;;;12.41;100.00;99203.59;15286044;19;20018;-55
2023/10/03 22:42:06;;;;;;;2.53;0.90;;;;;;;12.38;100.00;99206.63;15287774;19;20471;-54
2023/10/03 22:47:37;;;;;;;1.88;0.90;;;;;;;12.30;100.00;99210.94;15278580;19;20018;-54
2023/10/03 22:53:02;;;;;;;2.53;1.10;;;;;;;12.20;100.00;99220.97;15285875;19;20090;-56
2023/10/03 22:58:23;;;;;;;2.05;1.20;;;;;;;12.07;100.00;99231.28;15285124;19;20460;-54
2023/10/03 23:03:48;;;;;;;2.60;1.30;;;;;;;12.02;100.00;99227.19;15287947;19;20024;-56
2023/10/03 23:09:13;;;;;;;2.08;0.90;;;;;;;11.89;100.00;99223.97;15287879;19;20280;-53
2023/10/03 23:14:42;;;;;;;2.72;1.05;;;;;;;11.98;100.00;99214.16;15287142;19;20032;-53
2023/10/03 23:20:11;;;;;;;2.80;1.20;;;;;;;11.76;100.00;99218.91;15282249;19;20054;-53
2023/10/03 23:25:36;;;;;;;3.45;1.13;;;;;;;11.60;100.00;99203.34;15284758;19;20082;-53
2023/10/03 23:31:04;;;;;;;1.65;1.00;;;;;;;11.54;100.00;99187.75;15286798;19;20018;-54
2023/10/03 23:36:28;;;;;;;3.05;1.20;;;;;;;11.42;100.00;99208.66;15300085;19;20018;-52
2023/10/03 23:41:54;;;;;;;2.53;1.00;;;;;;;11.41;100.00;99188.94;15302490;19;20086;-54
2023/10/03 23:47:28;;;;;;;2.00;0.98;;;;;;;11.34;100.00;99192.38;15295637;19;20078;-51
2023/10/03 23:52:53;;;;;;;1.85;0.98;;;;;;;11.26;100.00;99187.72;15292021;19;20077;-51
2023/10/03 23:58:18;;;;;;;2.97;1.00;;;;;;;11.20;100.00;99182.91;15296209;19;20011;-55
